Time;durP1;ratioP1;P1;durP2;ratioP2;P2;SDS_P1;SDS_P2;PMS_P1;PMS_P2;Temp;Humidity;BMP_temperature;BMP_pressure;BME280_temperature;BME280_humidity;BME280_pressure;Samples;Min_cycle;Max_cycle;Signal;HPM_P1;HPM_P2
2023/04/04 00:01:13;;;;;;;7.43;4.30;;;;;;;;;;5033016;28;20045;-74
2023/04/04 00:03:40;;;;;;;9.60;4.10;;;;;;;;;;5017525;28;20049;-74
2023/04/04 00:06:09;;;;;;;8.23;4.45;;;;;;;;;;5033413;28;20064;-74
2023/04/04 00:08:35;;;;;;;8.00;3.83;;;;;;;;;;5032251;28;20045;-73
2023/04/04 00:11:01;;;;;;;7.57;4.22;;;;;;;;;;5035274;28;20125;-74
2023/04/04 00:13:27;;;;;;;8.60;4.07;;;;;;;;;;5020421;28;20125;-74
2023/04/04 00:15:54;;;;;;;8.35;4.32;;;;;;;;;;5035219;28;20116;-73
2023/04/04 00:18:20;;;;;;;7.22;4.28;;;;;;;;;;5016299;28;20049;-73
2023/04/04 00:20:46;;;;;;;7.38;3.95;;;;;;;;;;5035387;28;20050;-74
2023/04/04 00:23:12;;;;;;;6.97;4.10;;;;;;;;;;5034219;28;20111;-74
2023/04/04 00:25:38;;;;;;;8.02;4.30;;;;;;;;;;5034753;28;20046;-74
2023/04/04 00:28:05;;;;;;;7.18;4.40;;;;;;;;;;5033632;28;20037;-73
2023/04/04 00:30:31;;;;;;;8.05;4.38;;;;;;;;;;5033697;28;20049;-73
2023/04/04 00:32:57;;;;;;;7.80;4.30;;;;;;;;;;5034526;28;20133;-74
2023/04/04 00:35:23;;;;;;;11.32;4.65;;;;;;;;;;5032941;28;20048;-73
2023/04/04 00:37:49;;;;;;;9.13;4.55;;;;;;;;;;5035186;28;20179;-73
2023/04/04 00:40:17;;;;;;;7.10;4.07;;;;;;;;;;5034681;28;20448;-73
2023/04/04 00:42:43;;;;;;;9.40;4.47;;;;;;;;;;5031710;28;20485;-73
2023/04/04 00:45:09;;;;;;;6.68;4.18;;;;;;;;;;5033824;28;20042;-73
2023/04/04 00:47:35;;;;;;;10.45;4.68;;;;;;;;;;5032901;28;20172;-74
2023/04/04 00:50:02;;;;;;;9.02;4.47;;;;;;;;;;5034654;28;20041;-73
2023/04/04 00:52:28;;;;;;;7.85;4.50;;;;;;;;;;5033370;28;20045;-74
2023/04/04 00:54:55;;;;;;;9.00;4.78;;;;;;;;;;5034697;28;20126;-73
2023/04/04 00:57:23;;;;;;;7.68;4.38;;;;;;;;;;5033747;28;20049;-74
2023/04/04 00:59:49;;;;;;;9.30;5.07;;;;;;;;;;5031902;28;20052;-73
2023/04/04 01:02:15;;;;;;;8.70;4.68;;;;;;;;;;5033524;28;20065;-73
2023/04/04 01:04:42;;;;;;;8.55;4.78;;;;;;;;;;5034401;28;20044;-73
2023/04/04 01:07:08;;;;;;;10.90;4.60;;;;;;;;;;5033082;28;20049;-73
2023/04/04 01:09:34;;;;;;;7.55;4.60;;;;;;;;;;5034245;28;20407;-73
2023/04/04 01:12:01;;;;;;;9.95;5.20;;;;;;;;;;5031176;28;20049;-73
2023/04/04 01:14:27;;;;;;;12.23;4.93;;;;;;;;;;5016251;28;20081;-74
2023/04/04 01:16:53;;;;;;;9.40;4.90;;;;;;;;;;5040097;28;20060;-73
2023/04/04 01:19:36;;;;;;;11.48;5.28;;;;;;;;;;5054388;28;20053;-73
2023/04/04 01:22:03;;;;;;;8.68;4.60;;;;;;;;;;5018284;28;20492;-73
2023/04/04 01:24:32;;;;;;;8.82;4.60;;;;;;;;;;5034422;28;20041;-74
2023/04/04 01:26:59;;;;;;;8.85;4.70;;;;;;;;;;5033388;28;20491;-74
2023/04/04 01:29:26;;;;;;;9.50;4.75;;;;;;;;;;5033936;28;20076;-73
2023/04/04 01:32:08;;;;;;;10.45;4.65;;;;;;;;;;5034509;28;20042;-74
2023/04/04 01:34:34;;;;;;;7.57;4.88;;;;;;;;;;5052877;28;20076;-73
2023/04/04 01:37:00;;;;;;;9.63;5.30;;;;;;;;;;5054084;28;20044;-74
2023/04/04 01:39:30;;;;;;;9.23;4.65;;;;;;;;;;5053854;28;20049;-73
2023/04/04 01:41:56;;;;;;;7.78;4.68;;;;;;;;;;5039670;28;20045;-73
2023/04/04 01:44:23;;;;;;;7.40;4.90;;;;;;;;;;5031865;28;20041;-73
2023/04/04 01:46:55;;;;;;;7.28;4.53;;;;;;;;;;5033637;28;20404;-74
2023/04/04 01:49:22;;;;;;;7.40;4.82;;;;;;;;;;5033161;28;20042;-73
2023/04/04 01:51:48;;;;;;;9.35;4.78;;;;;;;;;;5046123;28;20047;-73
2023/04/04 01:54:15;;;;;;;10.27;4.85;;;;;;;;;;5053286;28;20080;-73
2023/04/04 01:56:42;;;;;;;9.73;4.78;;;;;;;;;;5016165;28;20048;-74
2023/04/04 01:59:08;;;;;;;8.05;4.80;;;;;;;;;;5033644;28;20041;-74
2023/04/04 02:01:34;;;;;;;7.47;4.50;;;;;;;;;;5032271;28;20537;-74
2023/04/04 02:04:01;;;;;;;7.13;4.60;;;;;;;;;;5033038;28;20117;-73
2023/04/04 02:06:27;;;;;;;8.82;4.60;;;;;;;;;;5013682;28;20041;-74
2023/04/04 02:08:53;;;;;;;8.40;4.75;;;;;;;;;;5032284;28;20049;-73
2023/04/04 02:11:21;;;;;;;8.82;4.65;;;17.40;71.00;;;;;;5031940;28;20088;-75
2023/04/04 02:13:47;;;;;;;8.70;4.65;;;;;;;;;;5015209;28;20050;-74
2023/04/04 02:16:14;;;;;;;9.13;4.90;;;;;;;;;;5015275;28;20115;-74
2023/04/04 02:18:40;;;;;;;8.40;4.55;;;;;;;;;;5031793;28;20053;-74
2023/04/04 02:21:06;;;;;;;8.52;4.45;;;;;;;;;;5031385;28;20182;-74
2023/04/04 02:23:32;;;;;;;7.63;4.18;;;;;;;;;;5032914;28;20179;-74
2023/04/04 02:25:58;;;;;;;8.50;4.60;;;;;;;;;;5031825;28;20404;-74
2023/04/04 02:28:24;;;;;;;10.57;4.68;;;;;;;;;;5031430;28;20045;-74
2023/04/04 02:30:51;;;;;;;8.30;4.75;;;;;;;;;;5031939;28;20037;-74
2023/04/04 02:33:17;;;;;;;8.70;4.43;;;;;;;;;;5032396;28;20133;-74
2023/04/04 02:35:43;;;;;;;8.40;4.78;;;;;;;;;;5031074;28;20132;-74
2023/04/04 02:38:09;;;;;;;9.23;4.75;;;;;;;;;;5032797;28;20046;-74
2023/04/04 02:40:38;;;;;;;7.07;4.30;;;;;;;;;;5033068;28;20053;-74
2023/04/04 02:43:04;;;;;;;8.32;4.80;;;4.20;99.90;;;;;;5032197;28;20042;-74
2023/04/04 02:45:29;;;;;;;9.32;4.88;;;3.00;99.90;;;;;;5032352;28;20104;-74
2023/04/04 02:47:55;;;;;;;9.55;5.38;;;2.90;99.90;;;;;;5031415;28;20042;-74
2023/04/04 02:50:21;;;;;;;7.22;4.75;;;2.90;99.90;;;;;;5031978;28;20052;-74
2023/04/04 02:52:46;;;;;;;7.25;4.90;;;2.90;99.90;;;;;;5012718;28;20084;-74
2023/04/04 02:55:12;;;;;;;8.68;5.05;;;2.90;99.90;;;;;;5031326;28;20702;-74
2023/04/04 02:57:38;;;;;;;9.57;4.95;;;2.90;99.90;;;;;;5032570;28;20049;-75
2023/04/04 03:00:05;;;;;;;8.52;5.00;;;2.80;99.90;;;;;;5013939;28;20073;-74
2023/04/04 03:02:31;;;;;;;8.98;5.03;;;2.80;99.90;;;;;;5029237;28;20056;-74
2023/04/04 03:04:57;;;;;;;7.90;4.97;;;2.80;99.90;;;;;;5028555;28;20133;-74
2023/04/04 03:07:22;;;;;;;9.30;4.53;;;2.80;99.90;;;;;;5030863;28;20053;-74
2023/04/04 03:09:48;;;;;;;7.75;4.90;;;3.80;99.90;;;;;;5032304;28;20034;-74
2023/04/04 03:12:14;;;;;;;8.55;5.07;;;2.70;99.90;;;;;;5032241;28;20050;-74
2023/04/04 03:14:39;;;;;;;8.57;4.43;;;2.70;99.90;;;;;;5030847;28;20086;-75
2023/04/04 03:17:06;;;;;;;9.27;4.03;;;2.60;99.90;;;;;;5032398;28;20493;-74
2023/04/04 03:19:32;;;;;;;9.88;4.80;;;2.60;99.90;;;;;;5049579;28;20057;-74
2023/04/04 03:21:58;;;;;;;9.70;4.78;;;3.30;99.90;;;;;;5041878;28;20040;-74
2023/04/04 03:24:24;;;;;;;8.32;4.43;;;2.50;99.90;;;;;;5031067;28;20053;-74
2023/04/04 03:26:49;;;;;;;7.40;4.47;;;2.50;99.90;;;;;;5032605;28;20041;-74
2023/04/04 03:29:16;;;;;;;7.68;4.20;;;2.40;99.90;;;;;;5014018;28;20056;-74
2023/04/04 03:31:41;;;;;;;6.63;4.13;;;2.30;99.90;;;;;;5014161;28;20084;-75
2023/04/04 03:34:08;;;;;;;7.97;4.50;;;2.30;99.90;;;;;;5037989;28;20393;-74
2023/04/04 03:36:33;;;;;;;8.43;4.35;;;2.30;99.90;;;;;;5050986;28;20048;-74
2023/04/04 03:38:59;;;;;;;7.05;4.10;;;2.60;99.90;;;;;;5052000;28;20048;-74
2023/04/04 03:41:25;;;;;;;8.73;4.13;;;2.90;99.90;;;;;;5050768;28;20519;-74
2023/04/04 03:43:50;;;;;;;7.53;4.57;;;2.30;99.90;;;;;;5052056;28;20049;-74
2023/04/04 03:46:16;;;;;;;6.82;4.00;;;2.30;99.90;;;;;;5052194;28;20136;-74
2023/04/04 03:48:42;;;;;;;9.10;4.07;;;2.30;99.90;;;;;;5039513;28;20484;-75
2023/04/04 03:51:08;;;;;;;7.15;3.88;;;2.30;99.90;;;;;;5031747;28;20517;-75
2023/04/04 03:53:35;;;;;;;6.95;4.03;;;2.60;99.90;;;;;;5066394;28;20131;-74
2023/04/04 03:56:01;;;;;;;7.35;4.43;;;2.20;99.90;;;;;;5046193;28;20037;-74
2023/04/04 03:58:27;;;;;;;10.40;4.60;;;2.20;99.90;;;;;;5014196;28;20046;-74
2023/04/04 04:00:53;;;;;;;7.57;4.22;;;2.30;99.90;;;;;;5030134;28;20125;-74
2023/04/04 04:03:20;;;;;;;6.95;4.38;;;2.30;99.90;;;;;;5029385;28;20053;-74
2023/04/04 04:05:46;;;;;;;7.90;4.10;;;2.40;99.90;;;;;;5028605;28;20061;-74
2023/04/04 04:08:12;;;;;;;7.75;4.75;;;2.30;99.90;;;;;;5030644;28;20052;-74
2023/04/04 04:10:38;;;;;;;9.35;4.70;;;2.30;99.90;;;;;;5030490;28;20042;-74
2023/04/04 04:13:03;;;;;;;6.93;4.60;;;2.30;99.90;;;;;;5031463;28;20033;-74
2023/04/04 04:15:29;;;;;;;10.88;5.38;;;2.30;99.90;;;;;;5030353;28;20045;-74
2023/04/04 04:17:55;;;;;;;9.70;5.15;;;2.30;99.90;;;;;;5030375;28;20049;-74
2023/04/04 04:20:21;;;;;;;9.50;5.13;;;2.60;99.90;;;;;;5031588;28;20042;-74
2023/04/04 04:22:48;;;;;;;10.38;4.75;;;3.60;99.90;;;;;;5029630;28;20033;-74
2023/04/04 04:25:17;;;;;;;8.40;4.43;;;2.40;99.90;;;;;;5029997;28;20545;-73
2023/04/04 04:27:43;;;;;;;11.27;4.32;;;2.40;99.90;;;;;;5031643;28;20033;-73
2023/04/04 04:30:09;;;;;;;9.35;4.28;;;2.40;99.90;;;;;;5030971;28;20452;-74
2023/04/04 04:32:35;;;;;;;7.68;4.10;;;2.30;99.90;;;;;;5033921;28;20038;-73
2023/04/04 04:35:01;;;;;;;9.05;3.90;;;2.30;99.90;;;;;;5050304;28;20034;-73
2023/04/04 04:37:27;;;;;;;6.90;3.67;;;2.40;99.90;;;;;;5033589;28;20037;-73
2023/04/04 04:39:52;;;;;;;7.65;4.13;;;2.40;99.90;;;;;;5033996;28;20208;-73
2023/04/04 04:42:18;;;;;;;10.20;4.40;;;2.40;99.90;;;;;;5032783;28;20531;-73
2023/04/04 04:44:44;;;;;;;7.65;3.90;;;2.30;99.90;;;;;;5035041;28;20045;-74
2023/04/04 04:47:10;;;;;;;8.55;3.97;;;2.40;99.90;;;;;;5033719;28;20041;-73
2023/04/04 04:49:35;;;;;;;7.78;3.92;;;2.30;99.90;;;;;;5034411;28;20057;-73
2023/04/04 04:52:01;;;;;;;8.82;4.63;;;2.30;99.90;;;;;;5049858;28;20064;-73
2023/04/04 04:54:27;;;;;;;8.23;4.18;;;2.30;99.90;;;;;;5040260;28;20045;-73
2023/04/04 04:56:53;;;;;;;7.47;4.07;;;2.30;99.90;;;;;;5037735;28;20128;-73
2023/04/04 04:59:18;;;;;;;10.70;4.13;;;2.30;99.90;;;;;;5032915;28;20136;-73
2023/04/04 05:01:44;;;;;;;7.45;3.80;;;3.70;99.90;;;;;;5034447;28;20481;-74
2023/04/04 05:04:10;;;;;;;8.85;3.90;;;3.00;99.90;;;;;;5032636;28;20048;-73
2023/04/04 05:06:37;;;;;;;7.90;3.70;;;2.30;99.90;;;;;;5032438;28;20479;-73
2023/04/04 05:09:03;;;;;;;7.95;3.90;;;2.30;99.90;;;;;;5050074;28;20053;-73
2023/04/04 05:11:29;;;;;;;10.52;3.95;;;2.30;99.90;;;;;;5047859;28;20073;-73
2023/04/04 05:13:55;;;;;;;6.97;4.03;;;2.30;99.90;;;;;;5033486;28;20049;-74
2023/04/04 05:16:21;;;;;;;10.43;4.53;;;2.30;99.90;;;;;;5033419;28;20563;-75
2023/04/04 05:18:47;;;;;;;7.40;4.13;;;2.40;99.90;;;;;;5048430;28;20123;-74
2023/04/04 05:21:12;;;;;;;10.38;4.53;;;2.40;99.90;;;;;;5052929;28;20473;-74
2023/04/04 05:23:38;;;;;;;9.68;4.47;;;2.40;99.90;;;;;;5033803;28;20037;-75
2023/04/04 05:26:04;;;;;;;10.57;4.57;;;2.40;99.90;;;;;;5033932;28;20072;-75
2023/04/04 05:28:33;;;;;;;9.88;4.40;;;2.40;99.90;;;;;;5030105;28;20485;-74
2023/04/04 05:30:59;;;;;;;8.95;4.40;;;2.50;99.90;;;;;;5031575;28;20401;-74
2023/04/04 05:33:24;;;;;;;7.03;4.40;;;2.50;99.90;;;;;;5034491;28;20053;-75
2023/04/04 05:35:50;;;;;;;8.85;4.38;;;2.50;99.90;;;;;;5053590;28;20045;-75
2023/04/04 05:38:16;;;;;;;9.00;4.47;;;2.60;99.90;;;;;;5053755;28;20167;-75
2023/04/04 05:40:41;;;;;;;8.32;4.25;;;3.50;99.90;;;;;;5053287;28;20037;-75
2023/04/04 05:43:08;;;;;;;8.32;4.57;;;2.60;99.90;;;;;;5053517;28;20552;-74
2023/04/04 05:45:33;;;;;;;9.82;4.50;;;2.70;99.90;;;;;;5053521;28;20045;-75
2023/04/04 05:47:59;;;;;;;8.35;4.18;;;2.70;99.90;;;;;;5044078;28;20037;-75
2023/04/04 05:50:25;;;;;;;7.43;4.00;;;4.00;99.90;;;;;;5031782;28;20049;-75
2023/04/04 05:52:54;;;;;;;10.70;4.32;;;2.70;99.90;;;;;;5032754;28;20038;-75
2023/04/04 05:55:20;;;;;;;7.85;4.22;;;2.70;99.90;;;;;;5032767;28;20160;-75
2023/04/04 05:57:47;;;;;;;8.10;4.47;;;2.70;99.90;;;;;;5040991;28;20505;-76
2023/04/04 06:00:14;;;;;;;9.27;3.95;;;2.70;99.90;;;;;;5033339;28;20401;-77
2023/04/04 06:02:40;;;;;;;8.77;4.05;;;2.70;99.90;;;;;;5033350;28;20048;-75
2023/04/04 06:05:07;;;;;;;7.72;4.10;;;2.70;99.90;;;;;;5031860;28;20132;-75
2023/04/04 06:07:33;;;;;;;5.88;3.80;;;2.70;99.90;;;;;;5015582;28;20156;-75
2023/04/04 06:09:58;;;;;;;7.88;3.83;;;2.70;99.90;;;;;;5032936;28;20120;-75
2023/04/04 06:12:24;;;;;;;8.10;4.32;;;3.90;99.90;;;;;;5033071;28;20044;-75
2023/04/04 06:14:50;;;;;;;7.90;4.20;;;2.80;99.90;;;;;;5031686;28;20398;-75
2023/04/04 06:17:15;;;;;;;10.80;4.53;;;2.80;99.90;;;;;;5030925;28;20061;-73
2023/04/04 06:19:41;;;;;;;9.57;4.25;;;2.90;99.90;;;;;;5030189;28;20077;-73
2023/04/04 06:22:07;;;;;;;7.03;4.00;;;3.00;99.90;;;;;;5030632;28;20513;-74
2023/04/04 06:24:32;;;;;;;11.10;4.00;;;3.00;99.90;;;;;;5013306;28;20072;-74
2023/04/04 06:26:58;;;;;;;6.75;3.63;;;3.10;99.90;;;;;;5025587;28;20129;-74
2023/04/04 06:29:25;;;;;;;7.25;4.10;;;4.20;99.90;;;;;;5029545;28;20121;-74
2023/04/04 06:31:50;;;;;;;12.00;3.88;;;4.20;99.90;;;;;;5031424;28;20520;-74
2023/04/04 06:34:16;;;;;;;8.95;3.83;;;3.30;99.90;;;;;;5032382;28;20136;-74
2023/04/04 06:36:42;;;;;;;7.13;3.88;;;3.40;99.90;;;;;;5047467;28;20351;-74
2023/04/04 06:39:07;;;;;;;8.02;4.07;;;3.50;99.90;;;;;;5030144;28;20092;-74
2023/04/04 06:41:33;;;;;;;12.23;3.88;;;3.70;99.90;;;;;;5032169;28;20068;-74
2023/04/04 06:43:59;;;;;;;10.65;4.00;;;3.80;99.90;;;;;;5014281;28;20059;-74
2023/04/04 06:46:26;;;;;;;7.35;3.45;;;3.90;99.90;;;;;;5032855;28;20396;-74
2023/04/04 06:48:51;;;;;;;8.02;3.97;;;4.30;99.90;;;;;;5030983;28;20520;-74
2023/04/04 06:51:17;;;;;;;10.75;4.00;;;4.40;99.90;;;;;;5031045;28;20045;-74
2023/04/04 06:53:43;;;;;;;8.10;3.80;;;4.40;99.90;;;;;;5030855;28;20041;-74
2023/04/04 06:56:09;;;;;;;7.25;3.55;;;;;;;;;;5048620;28;20045;-74
2023/04/04 06:58:37;;;;;;;9.02;3.40;;;;;;;;;;5040789;28;20129;-76
2023/04/04 07:01:03;;;;;;;6.47;3.75;;;;;;;;;;5032159;28;20096;-73
2023/04/04 07:03:30;;;;;;;8.27;3.70;;;;;;;;;;5033237;28;20405;-73
2023/04/04 07:05:56;;;;;;;7.25;3.58;;;;;;;;;;5051848;28;20044;-74
2023/04/04 07:08:22;;;;;;;7.80;3.67;;;;;;;;;;5042065;28;20045;-74
2023/04/04 07:10:49;;;;;;;7.43;3.10;;;;;;;;;;5031965;28;20053;-73
2023/04/04 07:13:15;;;;;;;7.68;3.40;;;;;;;;;;5031627;28;20049;-72
2023/04/04 07:15:47;;;;;;;7.97;3.35;;;;;;;;;;5031324;28;20474;-72
2023/04/04 07:18:13;;;;;;;8.23;3.15;;;;;;;;;;5031544;28;20520;-72
2023/04/04 07:20:39;;;;;;;6.28;3.30;;;;;;;;;;5031884;28;20049;-73
2023/04/04 07:23:05;;;;;;;5.28;2.75;;;;;;;;;;5030796;28;20477;-73
2023/04/04 07:25:32;;;;;;;6.80;3.00;;;;;;;;;;5031898;28;20053;-73
2023/04/04 07:27:58;;;;;;;7.38;2.70;;;;;;;;;;5014752;28;20493;-74
2023/04/04 07:30:27;;;;;;;7.72;3.00;;;;;;;;;;5029788;28;20041;-74
2023/04/04 07:32:57;;;;;;;4.88;2.90;;;;;;;;;;5046056;28;20041;-74
2023/04/04 07:35:23;;;;;;;5.20;2.55;;;;;;;;;;5050070;28;20063;-73
2023/04/04 07:37:49;;;;;;;5.70;2.50;;;;;;;;;;5042685;28;20033;-74
2023/04/04 07:40:16;;;;;;;7.15;2.50;;;;;;;;;;5030334;28;20050;-74
2023/04/04 07:42:45;;;;;;;6.22;3.00;;;;;;;;;;5031966;28;20118;-74
2023/04/04 07:45:14;;;;;;;5.20;2.70;;;;;;;;;;5029913;28;20163;-74
2023/04/04 07:47:44;;;;;;;5.65;2.97;;;;;;;;;;5014294;28;20050;-74
2023/04/04 07:50:10;;;;;;;6.00;2.75;;;;;;;;;;5040936;28;20041;-73
2023/04/04 07:52:37;;;;;;;7.55;2.78;;;;;;;;;;5042055;28;20422;-74
2023/04/04 07:55:04;;;;;;;7.70;3.08;;;;;;;;;;5028413;28;20048;-74
2023/04/04 07:57:30;;;;;;;5.70;2.65;;;;;;;;;;5030284;28;20069;-74
2023/04/04 07:59:56;;;;;;;7.63;2.53;;;;;;;;;;5031328;28;20541;-74
2023/04/04 08:02:22;;;;;;;7.00;2.85;;;;;;;;;;5030772;28;20077;-74
2023/04/04 08:04:48;;;;;;;6.25;2.70;;;;;;;;;;5029064;28;20160;-74
2023/04/04 08:07:14;;;;;;;6.88;2.60;;;;;;;;;;5049672;28;20047;-74
2023/04/04 08:09:41;;;;;;;5.53;2.47;;;;;;;;;;5043376;28;20080;-74
2023/04/04 08:12:07;;;;;;;6.93;2.63;;;;;;;;;;5032563;28;20041;-74
2023/04/04 08:14:33;;;;;;;5.47;2.70;;;;;;;;;;5035341;28;20059;-74
2023/04/04 08:17:00;;;;;;;4.70;2.45;;;;;;;;;;5033180;28;20076;-74
2023/04/04 08:19:26;;;;;;;5.38;2.30;;;;;;;;;;5014236;28;20041;-74
2023/04/04 08:21:52;;;;;;;6.95;2.53;;;;;;;;;;5017489;28;20042;-74
2023/04/04 08:24:18;;;;;;;5.57;2.28;;;;;;;;;;5034321;28;20155;-74
2023/04/04 08:26:44;;;;;;;6.68;2.38;;;;;;;;;;5035637;28;20064;-74
2023/04/04 08:29:10;;;;;;;8.43;2.42;;;;;;;;;;5034738;28;20506;-75
2023/04/04 08:31:36;;;;;;;7.88;2.60;;;;;;;;;;5035183;28;20045;-74
2023/04/04 08:34:03;;;;;;;8.02;2.60;;;;;;;;;;5016996;28;20057;-74
2023/04/04 08:36:29;;;;;;;6.30;2.50;;;;;;;;;;5017483;28;20471;-74
2023/04/04 08:38:55;;;;;;;4.65;2.33;;;;;;;;;;5034601;28;20045;-74
2023/04/04 08:41:22;;;;;;;4.13;2.38;;;;;;;;;;5035083;28;20044;-74
2023/04/04 08:43:53;;;;;;;5.00;2.53;;;;;;;;;;5034682;28;20061;-74
2023/04/04 08:46:22;;;;;;;4.85;2.58;;;;;;;;;;5033343;28;20458;-74
2023/04/04 08:48:49;;;;;;;5.45;2.25;;;;;;;;;;5032861;28;20124;-74
2023/04/04 08:51:17;;;;;;;6.22;2.10;;;;;;;;;;5031458;28;20046;-74
2023/04/04 08:53:43;;;;;;;6.25;2.20;;;;;;;;;;5036291;28;20045;-74
2023/04/04 08:56:09;;;;;;;6.70;2.30;;;;;;;;;;5016411;28;20128;-74
2023/04/04 08:58:37;;;;;;;7.90;2.60;;;;;;;;;;5031203;28;20485;-74
2023/04/04 09:01:04;;;;;;;4.68;2.33;;;;;;;;;;5036056;28;20052;-75
2023/04/04 09:03:31;;;;;;;4.68;2.38;;;;;;;;;;5038701;28;20045;-75
2023/04/04 09:05:58;;;;;;;4.47;2.40;;;;;;;;;;5034883;28;20041;-75
2023/04/04 09:08:24;;;;;;;5.60;2.42;;;;;;;;;;5032005;28;20053;-75
2023/04/04 09:10:51;;;;;;;7.30;2.55;;;;;;;;;;5040586;28;20376;-74
2023/04/04 09:13:17;;;;;;;7.22;2.50;;;4.40;99.90;;;;;;5028152;28;20042;-75
2023/04/04 09:15:50;;;;;;;6.18;2.50;;;14.70;81.20;;;;;;5032501;28;20148;-75
2023/04/04 09:18:16;;;;;;;5.68;2.35;;;14.60;75.70;;;;;;5031205;28;20406;-75
2023/04/04 09:20:49;;;;;;;4.38;2.30;;;14.70;74.20;;;;;;5029536;28;20085;-73
2023/04/04 09:23:19;;;;;;;5.32;2.38;;;15.40;72.00;;;;;;5031250;28;20041;-73
2023/04/04 09:25:53;;;;;;;6.15;2.47;;;15.90;71.30;;;;;;5048634;28;20049;-74
2023/04/04 09:28:20;;;;;;;6.85;2.60;;;16.70;68.80;;;;;;5032655;28;20365;-75
2023/04/04 09:30:50;;;;;;;4.90;2.22;;;17.20;67.90;;;;;;5032610;28;20107;-75
2023/04/04 09:33:17;;;;;;;4.90;2.25;;;18.20;66.60;;;;;;5049092;28;20045;-74
2023/04/04 09:35:53;;;;;;;5.97;2.30;;;19.40;65.00;;;;;;5032776;28;20064;-75
2023/04/04 09:38:20;;;;;;;6.10;2.58;;;;;;;;;;5034068;28;20045;-75
2023/04/04 09:40:47;;;;;;;5.70;2.38;;;;;;;;;;5034047;28;20150;-75
2023/04/04 09:43:14;;;;;;;6.10;2.30;;;;;;;;;;5033718;28;20056;-75
2023/04/04 09:45:41;;;;;;;6.45;2.40;;;;;;;;;;5049154;28;20107;-75
2023/04/04 09:48:08;;;;;;;4.68;2.20;;;;;;;;;;5033514;28;20048;-75
2023/04/04 09:50:35;;;;;;;7.07;2.45;;;;;;;;;;5048675;28;20057;-75
2023/04/04 09:53:01;;;;;;;4.90;2.17;;;;;;;;;;5048700;28;20052;-75
2023/04/04 09:55:31;;;;;;;6.57;2.30;;;;;;;;;;5048827;28;20374;-75
2023/04/04 09:57:57;;;;;;;4.95;2.20;;;;;;;;;;5032327;28;20052;-75
2023/04/04 10:00:28;;;;;;;4.70;2.35;;;;;;;;;;5033490;28;20045;-75
2023/04/04 10:02:57;;;;;;;5.43;2.30;;;;;;;;;;5033193;28;20049;-75
2023/04/04 10:05:23;;;;;;;4.60;2.08;;;;;;;;;;5032734;28;20041;-75
2023/04/04 10:07:49;;;;;;;6.63;2.50;;;;;;;;;;5033302;28;20107;-75
2023/04/04 10:10:16;;;;;;;4.57;2.33;;;;;;;;;;5033103;28;20478;-75
2023/04/04 10:12:46;;;;;;;5.28;2.15;;;;;;;;;;5032804;28;20045;-76
2023/04/04 10:15:14;;;;;;;4.55;2.30;;;;;;;;;;5015207;28;20413;-75
2023/04/04 10:17:41;;;;;;;5.63;1.92;;;;;;;;;;5032667;28;20103;-76
2023/04/04 10:20:08;;;;;;;5.15;2.10;;;;;;;;;;5032113;28;20124;-75
2023/04/04 10:22:35;;;;;;;4.70;2.45;;;;;;;;;;5032413;28;20033;-76
2023/04/04 10:25:01;;;;;;;5.78;2.38;;;;;;;;;;5031335;28;20117;-76
2023/04/04 10:27:27;;;;;;;6.53;2.42;;;;;;;;;;5015167;28;20513;-75
2023/04/04 10:29:53;;;;;;;6.85;2.53;;;;;;;;;;5031018;28;20389;-75
2023/04/04 10:32:28;;;;;;;4.80;2.40;;;;;;;;;;5032840;28;20056;-76
2023/04/04 10:34:55;;;;;;;;;;;;;;;;;;5011314;28;20124;-74
2023/04/04 10:37:27;;;;;;;4.32;2.33;;;;;;;;;;5029133;28;19933;-74
2023/04/04 10:40:04;;;;;;;6.70;2.53;;;;;;;;;;5028041;28;20046;-74
2023/04/04 10:42:37;;;;;;;5.13;2.28;;;;;;;;;;5029390;28;20055;-74
2023/04/04 10:45:05;;;;;;;6.43;2.28;;;;;;;;;;5027988;28;20060;-75
2023/04/04 10:47:32;;;;;;;6.50;2.42;;;;;;;;;;5028374;28;20057;-74
2023/04/04 10:49:58;;;;;;;4.97;2.40;;;;;;;;;;5029438;28;20401;-74
2023/04/04 10:52:27;;;;;;;6.40;2.60;;;;;;;;;;5029027;28;20045;-74
2023/04/04 10:54:54;;;;;;;4.97;2.50;;;;;;;;;;5028357;28;20470;-74
2023/04/04 10:57:21;;;;;;;5.75;2.40;;;;;;;;;;5028031;28;20042;-74
2023/04/04 10:59:58;;;;;;;5.13;2.40;;;;;;;;;;5027212;28;20060;-74
2023/04/04 11:02:43;;;;;;;7.05;2.45;;;;;;;;;;5028860;28;20076;-73
2023/04/04 11:05:12;;;;;;;7.45;2.25;;;;;;;;;;5028042;28;20045;-73
2023/04/04 11:07:39;;;;;;;4.40;2.25;;;;;;;;;;5028086;28;20046;-73
2023/04/04 11:10:15;;;;;;;4.22;2.20;;;;;;;;;;5029383;28;20647;-74
2023/04/04 11:12:45;;;;;;;5.18;2.50;;;;;;;;;;5028990;28;20041;-74
2023/04/04 11:15:13;;;;;;;4.78;2.28;;;;;;;;;;5011874;28;20057;-75
2023/04/04 11:17:48;;;;;;;4.63;2.25;;;;;;;;;;5028752;28;20049;-75
2023/04/04 11:20:15;;;;;;;6.78;2.47;;;;;;;;;;5029056;28;20176;-75
2023/04/04 11:22:42;;;;;;;5.47;2.22;;;;;;;;;;5027746;28;20473;-75
2023/04/04 11:25:27;;;;;;;5.18;2.80;;;;;;;;;;5027331;28;20486;-74
2023/04/04 11:27:57;;;;;;;5.37;2.50;;;;;;;;;;5026910;28;20061;-74
2023/04/04 11:30:23;;;;;;;4.90;2.20;;;;;;;;;;5026620;28;20350;-75
2023/04/04 11:32:49;;;;;;;6.53;2.25;;;;;;;;;;5027937;28;20045;-74
2023/04/04 11:35:16;;;;;;;6.45;2.38;;;;;;;;;;5029020;28;20045;-79
2023/04/04 11:37:43;;;;;;;4.75;2.10;;;;;;;;;;5032030;28;20034;-76
2023/04/04 11:40:12;;;;;;;4.45;2.20;;;;;;;;;;5031478;28;20094;-76
2023/04/04 11:42:38;;;;;;;5.82;2.20;;;;;;;;;;5038671;28;20044;-76
2023/04/04 11:45:06;;;;;;;4.63;2.20;;;;;;;;;;5037504;28;20132;-76
2023/04/04 11:47:32;;;;;;;4.50;2.17;;;;;;;;;;5055785;28;20041;-76
2023/04/04 11:50:00;;;;;;;5.00;2.20;;;;;;;;;;5037664;28;20393;-76
2023/04/04 11:52:32;;;;;;;4.78;2.38;;;;;;;;;;5035872;28;20068;-76
2023/04/04 11:54:59;;;;;;;4.50;2.50;;;;;;;;;;5033968;28;20124;-76
2023/04/04 11:57:26;;;;;;;4.47;2.30;;;;;;;;;;5036115;28;20407;-76
2023/04/04 11:59:52;;;;;;;4.07;2.08;;;;;;;;;;5034560;28;20084;-77
2023/04/04 12:02:30;;;;;;;5.28;2.28;;;;;;;;;;5035573;28;20053;-76
2023/04/04 12:04:56;;;;;;;5.40;2.28;;;;;;;;;;5035435;28;20103;-76
2023/04/04 12:07:26;;;;;;;4.50;2.10;;;;;;;;;;5034725;28;20421;-76
2023/04/04 12:09:52;;;;;;;8.07;2.60;;;;;;;;;;5020072;28;20056;-76
2023/04/04 12:12:18;;;;;;;4.78;2.33;;;;;;;;;;5038260;28;20390;-76
2023/04/04 12:14:45;;;;;;;5.13;2.20;;;;;;;;;;5035996;28;20049;-76
2023/04/04 12:17:11;;;;;;;7.78;2.65;;;;;;;;;;5035467;28;20407;-75
2023/04/04 12:19:37;;;;;;;5.80;2.42;;;;;;;;;;5036056;28;20075;-75
2023/04/04 12:22:04;;;;;;;6.10;2.70;;;;;;;;;;5035888;28;20045;-77
2023/04/04 12:24:31;;;;;;;6.95;2.40;;;;;;;;;;5035566;28;20414;-75
2023/04/04 12:26:57;;;;;;;5.72;2.50;;;;;;;;;;5033968;28;20049;-75
2023/04/04 12:29:26;;;;;;;4.95;2.50;;;;;;;;;;5047557;28;20397;-76
2023/04/04 12:31:52;;;;;;;5.18;2.67;;;;;;;;;;5028000;28;20141;-76
2023/04/04 12:34:22;;;;;;;4.75;2.60;;;;;;;;;;5012795;28;20383;-76
2023/04/04 12:36:51;;;;;;;5.22;2.67;;;;;;;;;;5015596;28;20049;-75
2023/04/04 12:39:17;;;;;;;5.63;2.88;;;;;;;;;;5013844;28;20112;-75
2023/04/04 12:41:48;;;;;;;7.07;2.90;;;;;;;;;;5013268;28;20048;-75
2023/04/04 12:44:26;;;;;;;6.93;3.05;;;;;;;;;;4996933;28;20049;-75
2023/04/04 12:46:56;;;;;;;7.00;3.00;;;;;;;;;;5014320;28;20050;-74
2023/04/04 12:49:22;;;;;;;5.28;2.60;;;;;;;;;;5013533;28;20057;-73
2023/04/04 12:51:48;;;;;;;5.15;2.90;;;;;;;;;;5012903;28;20081;-76
2023/04/04 12:54:25;;;;;;;8.50;2.78;;;;;;;;;;5013972;28;20406;-74
2023/04/04 12:56:58;;;;;;;4.97;2.60;;;;;;;;;;5013911;28;20085;-74
2023/04/04 12:59:27;;;;;;;6.65;2.80;;;;;;;;;;5014265;28;20132;-74
2023/04/04 13:01:53;;;;;;;5.82;2.72;;;;;;;;;;5014897;28;20113;-74
2023/04/04 13:04:19;;;;;;;5.00;2.60;;;;;;;;;;5014954;28;20375;-74
2023/04/04 13:06:46;;;;;;;8.25;2.95;;;;;;;;;;5013748;28;20550;-74
2023/04/04 13:09:16;;;;;;;5.57;2.65;;;;;;;;;;5013647;28;20054;-74
2023/04/04 13:12:01;;;;;;;6.53;2.85;;;;;;;;;;5016430;28;20113;-74
2023/04/04 13:14:28;;;;;;;7.43;2.90;;;;;;;;;;5034343;28;20049;-73
2023/04/04 13:17:09;;;;;;;5.22;3.05;;;;;;;;;;5034567;28;20089;-73
2023/04/04 13:19:35;;;;;;;5.75;2.90;;;;;;;;;;5032382;28;20050;-74
2023/04/04 13:22:02;;;;;;;5.78;2.70;;;;;;;;;;5034306;28;20438;-73
2023/04/04 13:24:28;;;;;;;5.10;3.00;;;;;;;;;;5016286;28;20053;-75
2023/04/04 13:26:55;;;;;;;5.53;2.67;;;;;;;;;;5034302;28;20042;-73
2023/04/04 13:29:22;;;;;;;5.30;2.70;;;;;;;;;;5034321;28;20052;-73
2023/04/04 13:31:48;;;;;;;6.22;2.90;;;;;;;;;;5034414;28;20045;-74
2023/04/04 13:34:14;;;;;;;7.45;2.58;;;;;;;;;;5032854;28;20458;-73
2023/04/04 13:36:40;;;;;;;6.07;2.55;;;;;;;;;;5033073;28;20037;-75
2023/04/04 13:39:06;;;;;;;7.72;3.28;;;;;;;;;;5031957;28;20057;-74
2023/04/04 13:41:32;;;;;;;3.50;2.20;;;;;;;;;;5032755;28;20067;-75
2023/04/04 13:43:58;;;;;;;6.13;2.80;;;;;;;;;;5032507;28;20057;-75
2023/04/04 13:46:24;;;;;;;6.55;2.97;;;;;;;;;;5034013;28;20045;-74
2023/04/04 13:48:50;;;;;;;5.47;2.75;;;;;;;;;;5039438;28;20462;-75
2023/04/04 13:51:16;;;;;;;6.07;2.85;;;;;;;;;;5033329;28;20053;-74
2023/04/04 13:53:43;;;;;;;4.68;2.60;;;;;;;;;;5033605;28;20046;-74
2023/04/04 13:56:10;;;;;;;5.72;2.90;;;;;;;;;;5016274;28;20470;-73
2023/04/04 13:58:36;;;;;;;7.03;3.30;;;;;;;;;;5034160;28;20128;-74
2023/04/04 14:01:05;;;;;;;5.65;2.75;;;;;;;;;;5032441;28;20088;-74
2023/04/04 14:03:31;;;;;;;6.95;2.72;;;;;;;;;;5032386;28;20454;-74